Meteorológiai információk azoknak akik tudják olvasni.

METAR = LHBP 260500Z 25006KT 8000 NSC 19/18 Q1012 NOSIG

9 órás TAF = TAF TAF LHBP 182000Z 1820/1821 CNL

24 órás TAF = TAF TAF LHBP 251715Z 2518/2618 27007KT CAVOK TEMPO 2518/2524 VRB22G35KT 2500 TSRA SQ BKN008 BKN025CB BECMG 2606/2609 29012G22KT SCT040 BECMG 2609/2611 CAVOK BECMG 2616/2618 23005KT

ÁLLOMÁS.................... LHBP
ÉSZLELÉS................... Mon Jun 26, 07:00 CEST
MOST....................... Mon Jun 26, 07:06 CEST
IDŐ........................ 6 perccel ezelőtt
SZÉL....................... NYDNY irányból 6 csomó
LÁTÁSTÁVOLSÁG.............. 5 mérföld
FELHŐZET................... nincs számottevő felhőzet
HŐMÉRSÉKLET................ 66°F (19°C)
HARMATPONT................. 64°F (18°C)
PÁRATARTALOM............... 94%
LÉGNYOMÁS.................. 1012 hPa (29.88 in Hg)

További információ LHBP állomásról

Meteor információ kérése:        állomásról.    

 

www.tothgeza.hu

 

English version
Copyright © 2003-2017 Tóth Géza Minden jog fenntartva.